Time;durP1;ratioP1;P1;durP2;ratioP2;P2;SDS_P1;SDS_P2;PMS_P1;PMS_P2;Temp;Humidity;BMP_temperature;BMP_pressure;BME280_temperature;BME280_humidity;BME280_pressure;Samples;Min_cycle;Max_cycle;Signal;HPM_P1;HPM_P2
2023/11/28 00:00:09;;;;;;;9.60;6.03;;;;;;;1.52;100.00;100262.56;4992029;28;20030;-72
2023/11/28 00:02:34;;;;;;;9.05;5.15;;;;;;;1.58;100.00;100288.44;4992721;28;20026;-71
2023/11/28 00:05:00;;;;;;;9.32;6.07;;;;;;;1.01;100.00;100197.06;4991904;28;20378;-71
2023/11/28 00:07:25;;;;;;;9.30;6.28;;;;;;;1.44;100.00;100263.66;4992170;28;20023;-70
2023/11/28 00:09:51;;;;;;;10.63;7.10;;;;;;;1.36;100.00;100260.59;4992274;28;20033;-73
2023/11/28 00:12:16;;;;;;;8.65;5.85;;;;;;;1.23;100.00;100269.00;4992653;28;20026;-69
2023/11/28 00:14:42;;;;;;;11.15;6.13;;;;;;;1.22;100.00;100269.81;4991908;28;20033;-67
2023/11/28 00:17:07;;;;;;;10.77;6.20;;;;;;;1.28;100.00;100271.88;4991971;28;20027;-69
2023/11/28 00:19:33;;;;;;;9.43;6.78;;;;;;;1.21;100.00;100267.13;5006954;28;20030;-71
2023/11/28 00:21:58;;;;;;;12.15;7.68;;;;;;;1.10;100.00;100266.38;4992082;28;20065;-70
2023/11/28 00:24:24;;;;;;;11.35;7.50;;;;;;;0.46;100.00;100183.09;4988896;28;20073;-71
2023/11/28 00:26:49;;;;;;;11.40;7.38;;;;;;;0.82;100.00;100254.22;4982449;28;20026;-71
2023/11/28 00:29:14;;;;;;;10.15;6.70;;;;;;;0.93;100.00;100239.75;4984274;28;20023;-68
2023/11/28 00:31:43;;;;;;;12.88;7.35;;;;;;;1.11;100.00;100258.84;4991612;28;20062;-69
2023/11/28 00:34:08;;;;;;;13.90;8.77;;;;;;;1.21;100.00;100259.50;4990677;28;20034;-69
2023/11/28 00:36:34;;;;;;;12.02;8.45;;;;;;;1.01;100.00;100232.66;4991906;28;20031;-67
2023/11/28 00:38:59;;;;;;;13.18;9.25;;;;;;;0.97;100.00;100241.72;4991326;28;20117;-69
2023/11/28 00:41:25;;;;;;;11.82;8.35;;;;;;;0.94;100.00;100272.91;4991734;28;20481;-69
2023/11/28 00:43:51;;;;;;;12.63;9.18;;;;;;;0.97;100.00;100269.69;4991473;28;20026;-67
2023/11/28 00:46:18;;;;;;;15.00;9.70;;;;;;;1.02;100.00;100273.44;4990794;28;20023;-67
2023/11/28 00:48:45;;;;;;;15.32;9.00;;;;;;;1.10;100.00;100263.84;4990701;28;20081;-70
2023/11/28 00:51:11;;;;;;;12.45;7.85;;;;;;;1.05;100.00;100257.56;4991394;28;20062;-69
2023/11/28 00:53:36;;;;;;;12.00;8.68;;;;;;;1.14;100.00;100250.56;4990113;28;20077;-69
2023/11/28 00:56:01;;;;;;;12.60;8.13;;;;;;;0.38;100.00;100119.81;4983776;28;20054;-68
2023/11/28 00:58:27;;;;;;;12.15;8.15;;;;;;;1.15;100.00;100259.06;4976014;28;20019;-68
2023/11/28 01:00:54;;;;;;;12.02;8.27;;;;;;;0.88;100.00;100223.28;4972784;28;20397;-66
2023/11/28 01:03:19;;;;;;;12.27;8.27;;;;;;;1.04;100.00;100271.03;4977249;28;20113;-68
2023/11/28 01:05:45;;;;;;;14.15;9.15;;;;;;;0.93;100.00;100252.47;4998241;28;20109;-66
2023/11/28 01:08:10;;;;;;;14.40;7.95;;;;;;;0.41;100.00;100151.41;4973192;28;20038;-70
2023/11/28 01:10:37;;;;;;;13.90;8.75;;;;;;;0.92;100.00;100253.22;4972106;28;20118;-72
2023/11/28 01:13:02;;;;;;;13.30;8.57;;;;;;;0.86;100.00;100230.81;4973183;28;20026;-72
2023/11/28 01:15:28;;;;;;;11.20;7.18;;;;;;;0.89;100.00;100258.09;4972890;28;20153;-67
2023/11/28 01:17:53;;;;;;;15.20;8.38;;;;;;;0.97;100.00;100239.19;4973648;28;20390;-70
2023/11/28 01:20:18;;;;;;;11.57;8.15;;;;;;;0.79;100.00;100215.91;4972843;28;20508;-73
2023/11/28 01:22:44;;;;;;;13.25;8.80;;;;;;;0.68;100.00;100215.09;4974978;28;20027;-68
2023/11/28 01:25:09;;;;;;;13.60;8.48;;;;;;;0.79;100.00;100203.19;4972801;28;20034;-70
2023/11/28 01:27:35;;;;;;;13.43;8.10;;;;;;;0.94;100.00;100227.13;4975313;28;20130;-70
2023/11/28 01:30:00;;;;;;;12.63;8.00;;;;;;;0.77;100.00;100210.72;4973354;28;20477;-67
2023/11/28 01:32:26;;;;;;;13.38;8.73;;;;;;;0.63;100.00;100213.91;4979821;28;20460;-71
2023/11/28 01:34:51;;;;;;;12.32;8.20;;;;;;;0.77;100.00;100212.34;4990384;28;20102;-70
2023/11/28 01:37:18;;;;;;;13.02;8.18;;;;;;;0.80;100.00;100203.28;5004625;28;20054;-70
2023/11/28 01:39:44;;;;;;;11.98;7.85;;;;;;;0.43;100.00;100141.34;4990567;28;20473;-67
2023/11/28 01:42:09;;;;;;;12.07;7.82;;;;;;;0.81;100.00;100194.03;4973198;28;20085;-65
2023/11/28 01:44:35;;;;;;;11.45;7.50;;;;;;;0.77;100.00;100212.34;4980748;28;20035;-66
2023/11/28 01:47:01;;;;;;;11.23;7.55;;;;;;;0.39;100.00;100180.88;4987470;28;20393;-66
2023/11/28 01:49:34;;;;;;;12.25;7.82;;;;;;;0.67;100.00;100217.53;4971255;28;20512;-65
2023/11/28 01:52:00;;;;;;;11.13;7.78;;;;;;;0.69;100.00;100199.09;4971916;28;20561;-67
2023/11/28 01:54:25;;;;;;;13.18;8.07;;;;;;;0.74;100.00;100192.69;4971862;28;20026;-67
2023/11/28 01:56:51;;;;;;;11.07;7.10;;;;;;;0.71;100.00;100187.41;4972485;28;20085;-67
2023/11/28 01:59:17;;;;;;;11.65;7.45;;;;;;;0.60;100.00;100167.97;4972136;28;20115;-68
2023/11/28 02:01:44;;;;;;;11.25;7.18;;;;;;;0.00;100.00;100098.50;4972672;28;20046;-68
2023/11/28 02:04:09;;;;;;;10.00;6.97;;;;;;;0.34;100.00;100199.97;4972637;28;20063;-68
2023/11/28 02:06:35;;;;;;;12.25;7.35;;;;;;;-0.78;100.00;100042.88;4974215;28;20066;-69
2023/11/28 02:09:01;;;;;;;12.82;7.82;;;;;;;0.00;100.00;100197.47;4973264;28;20027;-69
2023/11/28 02:11:26;;;;;;;13.40;7.65;;;;;;;-0.06;100.00;100190.28;4975474;28;20034;-68
2023/11/28 02:13:52;;;;;;;14.00;8.03;;;;;;;-0.04;100.00;100198.91;4974146;28;20489;-66
2023/11/28 02:16:17;;;;;;;18.85;10.40;;;;;;;-0.63;100.00;100116.66;4989799;28;20057;-69
2023/11/28 02:18:43;;;;;;;19.73;10.43;;;;;;;-0.33;100.00;100169.66;4989150;28;20030;-66
2023/11/28 02:21:13;;;;;;;51.53;27.17;;;;;;;-0.25;100.00;100193.09;4986037;28;20065;-68
2023/11/28 02:23:40;;;;;;;52.90;28.67;;;;;;;-1.29;100.00;100001.03;4988486;28;20066;-66
2023/11/28 02:26:17;;;;;;;33.33;18.33;;;;;;;-0.30;100.00;100184.22;4990427;28;20026;-67
2023/11/28 02:28:43;;;;;;;17.40;10.83;;;;;;;-0.31;100.00;100173.97;4989939;28;20049;-67
2023/11/28 02:31:09;;;;;;;12.80;7.63;;;;;;;-0.21;100.00;100177.34;4990018;28;20743;-66
2023/11/28 02:33:35;;;;;;;10.70;6.20;;;;;;;-0.24;100.00;100146.66;4989790;28;20030;-65
2023/11/28 02:36:00;;;;;;;8.87;5.63;;;;;;;0.03;100.00;100174.84;4990202;28;20375;-67
2023/11/28 02:38:26;;;;;;;9.00;5.73;;;;;;;-0.02;100.00;100173.63;4991865;28;20050;-69
2023/11/28 02:40:51;;;;;;;10.37;5.87;;;;;;;-0.13;100.00;100175.38;4993670;28;20034;-69
2023/11/28 02:43:17;;;;;;;11.40;5.43;;;;;;;-0.63;100.00;100084.56;4993302;28;20455;-69
2023/11/28 02:45:44;;;;;;;9.13;5.63;;;;;;;-0.20;100.00;100165.53;4993365;28;20056;-68
2023/11/28 02:48:10;;;;;;;12.27;5.63;;;;;;;-0.34;100.00;100142.56;4992925;28;20525;-67
2023/11/28 02:50:37;;;;;;;10.57;5.30;;;;;;;-0.25;100.00;100154.16;4994049;28;20054;-69
2023/11/28 02:53:04;;;;;;;7.77;5.33;;;;;;;-0.38;100.00;100129.53;5024205;28;20141;-73
2023/11/28 02:55:30;;;;;;;7.78;5.40;;;;;;;-0.21;100.00;100164.66;4994060;28;20023;-69
2023/11/28 02:57:57;;;;;;;8.90;5.27;;;;;;;-0.60;100.00;100104.19;4994020;28;20156;-73
2023/11/28 03:00:22;;;;;;;8.80;5.33;;;;;;;-0.88;100.00;100059.91;5024174;28;20077;-69
2023/11/28 03:02:48;;;;;;;11.40;5.43;;;;;;;-0.33;100.00;100140.91;4993495;28;20057;-69
2023/11/28 03:05:13;;;;;;;9.50;5.00;;;;;;;-0.21;100.00;100149.44;4993948;28;20035;-69
2023/11/28 03:07:39;;;;;;;8.15;4.65;;;;;;;-0.22;100.00;100134.09;4993939;28;20142;-68
2023/11/28 03:10:05;;;;;;;8.88;5.45;;;;;;;-0.09;100.00;100141.81;4993573;28;20035;-72
2023/11/28 03:12:30;;;;;;;10.13;5.30;;;;;;;-0.30;100.00;100130.09;4993350;28;20155;-67
2023/11/28 03:14:56;;;;;;;9.83;5.20;;;;;;;-0.23;100.00;100130.66;4993622;28;20105;-68
2023/11/28 03:17:21;;;;;;;7.87;5.03;;;;;;;-0.57;100.00;100072.34;4993589;28;20460;-70
2023/11/28 03:19:46;;;;;;;7.93;5.03;;;;;;;-0.31;100.00;100110.56;5023927;28;20042;-69
2023/11/28 03:22:12;;;;;;;9.17;5.03;;;;;;;-0.42;100.00;100117.41;4993513;28;20030;-67
2023/11/28 03:24:37;;;;;;;11.80;5.63;;;;;;;-0.89;100.00;100037.84;4993513;28;20461;-67
2023/11/28 03:27:03;;;;;;;12.93;5.30;;;;;;;-0.43;100.00;100108.00;4993034;28;20030;-68
2023/11/28 03:29:28;;;;;;;9.73;5.70;;;;;;;-1.09;100.00;100000.88;4993471;28;20036;-69
2023/11/28 03:31:54;;;;;;;10.03;5.20;;;;;;;-0.54;100.00;100097.94;4993168;28;20100;-70
2023/11/28 03:34:19;;;;;;;8.77;4.87;;;;;;;-0.62;100.00;100095.59;4993227;28;20042;-69
2023/11/28 03:36:45;;;;;;;11.33;6.00;;;;;;;-0.59;100.00;100089.09;4991157;28;20488;-69
2023/11/28 03:39:10;;;;;;;11.27;5.77;;;;;;;-0.50;100.00;100083.84;4993191;28;20049;-69
2023/11/28 03:41:36;;;;;;;10.20;4.93;;;;;;;-0.54;100.00;100084.38;4990526;28;20085;-70
2023/11/28 03:44:01;;;;;;;9.27;5.27;;;;;;;-0.45;100.00;100084.19;4991891;28;20030;-69
2023/11/28 03:46:27;;;;;;;10.07;5.47;;;;;;;-0.33;100.00;100087.63;4993016;28;20019;-69
2023/11/28 03:48:52;;;;;;;11.87;5.87;;;;;;;-0.38;100.00;100079.66;4992532;28;20031;-69
2023/11/28 03:51:18;;;;;;;9.43;4.83;;;;;;;-0.47;100.00;100062.88;4993050;28;20085;-69
2023/11/28 03:53:44;;;;;;;7.73;5.20;;;;;;;-0.68;100.00;100037.72;4993024;28;20064;-70
2023/11/28 03:56:10;;;;;;;9.83;5.50;;;;;;;-0.61;100.00;100061.88;4992769;28;20445;-69
2023/11/28 03:58:36;;;;;;;8.00;5.00;;;;;;;-0.59;100.00;100068.81;4990427;28;20065;-69
2023/11/28 04:01:02;;;;;;;9.00;5.20;;;;;;;-0.74;100.00;100032.19;4992946;28;20469;-69
2023/11/28 04:03:28;;;;;;;8.97;4.90;;;;;;;-0.59;100.00;100065.41;4992433;28;20030;-68
2023/11/28 04:05:55;;;;;;;8.27;4.80;;;;;;;-0.59;100.00;100061.22;4992373;28;20055;-69
2023/11/28 04:08:20;;;;;;;8.10;5.07;;;;;;;-0.61;100.00;100050.09;5007518;28;20523;-69
2023/11/28 04:10:46;;;;;;;6.27;4.20;;;;;;;-0.67;100.00;100047.09;4992653;28;20030;-70
2023/11/28 04:13:11;;;;;;;9.50;5.50;;;;;;;-0.82;100.00;100036.69;4992571;28;20030;-69
2023/11/28 04:15:38;;;;;;;7.33;4.40;;;;;;;-0.72;100.00;100039.13;4992457;28;20023;-69
2023/11/28 04:18:04;;;;;;;7.37;4.90;;;;;;;-0.72;100.00;100045.88;4992507;28;20113;-70
2023/11/28 04:20:30;;;;;;;9.23;4.73;;;;;;;-0.93;100.00;100010.53;4992334;28;20030;-70
2023/11/28 04:22:57;;;;;;;7.63;4.43;;;;;;;-0.69;100.00;100046.09;4992623;28;20552;-69
2023/11/28 04:25:25;;;;;;;8.73;5.23;;;;;;;-0.63;100.00;100050.75;4991945;28;20085;-70
2023/11/28 04:27:51;;;;;;;8.67;5.40;;;;;;;-0.62;100.00;100038.19;4991074;28;20469;-69
2023/11/28 04:30:36;;;;;;;8.10;4.87;;;;;;;-1.75;100.00;99849.94;5048677;28;20140;-74
2023/11/28 04:33:02;;;;;;;10.53;5.17;;;;;;;-0.68;100.00;100028.44;5048780;28;20175;-68
2023/11/28 04:35:28;;;;;;;8.37;5.00;;;;;;;-0.69;100.00;100021.59;5048596;28;20049;-69
2023/11/28 04:37:53;;;;;;;7.83;5.13;;;;;;;-0.63;100.00;100031.34;5042553;28;20044;-70
2023/11/28 04:40:19;;;;;;;9.00;5.03;;;;;;;-0.59;100.00;100038.38;5010225;28;20049;-69
2023/11/28 04:42:44;;;;;;;9.77;5.67;;;;;;;-0.76;100.00;99998.22;5020344;28;20038;-75
2023/11/28 04:45:11;;;;;;;8.50;4.97;;;;;;;-0.57;100.00;100034.31;5011541;28;20045;-67
2023/11/28 04:47:37;;;;;;;7.07;4.30;;;;;;;-0.59;100.00;100032.44;5028109;28;20033;-69
2023/11/28 04:50:03;;;;;;;7.70;4.63;;;;;;;-0.55;100.00;100022.66;5027968;28;20045;-76
2023/11/28 04:52:28;;;;;;;8.43;4.40;;;;;;;-0.51;100.00;100016.16;5027814;28;20044;-66
2023/11/28 04:54:54;;;;;;;8.20;4.33;;;;;;;-0.57;100.00;100016.56;5028495;28;20037;-68
2023/11/28 04:57:19;;;;;;;7.40;4.43;;;;;;;-0.53;100.00;100013.50;5028378;28;20088;-69
2023/11/28 04:59:45;;;;;;;14.00;7.97;;;;;;;-0.54;100.00;100019.31;5027919;28;20030;-69
2023/11/28 05:02:10;;;;;;;16.57;8.63;;;;;;;-0.47;100.00;100027.38;5001177;28;20073;-71
2023/11/28 05:04:36;;;;;;;9.20;5.53;;;;;;;-0.45;100.00;100034.34;4991730;28;20037;-72
2023/11/28 05:07:01;;;;;;;13.47;4.77;;;;;;;-0.44;100.00;100020.03;4990157;28;20487;-70
2023/11/28 05:09:27;;;;;;;9.93;5.00;;;;;;;-0.55;100.00;99993.88;4991265;28;20030;-68
2023/11/28 05:11:53;;;;;;;11.77;6.23;;;;;;;-1.00;100.00;99900.25;4987149;28;20060;-69
2023/11/28 05:14:19;;;;;;;11.67;7.90;;;;;;;-0.40;100.00;99997.53;4985972;28;20030;-68
2023/11/28 05:16:46;;;;;;;15.23;10.00;;;;;;;-0.30;100.00;99986.38;4991346;28;20053;-69
2023/11/28 05:19:12;;;;;;;22.10;13.80;;;;;;;-0.54;100.00;99944.94;4991538;28;20037;-69
2023/11/28 05:21:38;;;;;;;59.57;31.23;;;;;;;-0.19;100.00;99982.09;4991317;28;20568;-72
2023/11/28 05:24:03;;;;;;;24.23;13.40;;;;;;;-0.19;100.00;99982.09;4991309;28;20121;-69
2023/11/28 05:26:29;;;;;;;11.67;7.53;;;;;;;-0.26;100.00;99967.19;4991717;28;20042;-74
2023/11/28 05:28:55;;;;;;;31.23;13.30;;;;;;;-0.61;100.00;99902.16;4991240;28;20034;-69
2023/11/28 05:31:20;;;;;;;40.37;19.00;;;;;;;-0.10;100.00;99972.63;4991499;28;20058;-69
2023/11/28 05:33:45;;;;;;;14.67;9.57;;;;;;;-0.09;100.00;99981.09;4991281;28;20038;-69
2023/11/28 05:36:11;;;;;;;8.77;5.40;;;;;;;-0.20;100.00;99972.72;4991140;28;20053;-68
2023/11/28 05:38:37;;;;;;;10.43;5.87;;;;;;;-0.22;100.00;99976.81;4991365;28;20084;-68
2023/11/28 05:41:03;;;;;;;10.50;5.17;;;;;;;-0.26;100.00;99975.72;4991197;28;20419;-68
2023/11/28 05:43:32;;;;;;;8.73;4.57;;;;;;;-0.28;100.00;99963.69;4991214;28;20027;-70
2023/11/28 05:45:58;;;;;;;8.45;5.75;;;;;;;-0.38;100.00;99945.25;4991620;28;20046;-68
2023/11/28 05:48:25;;;;;;;7.40;5.30;;;;;;;-0.41;100.00;99929.84;4991254;28;20037;-68
2023/11/28 05:50:53;;;;;;;9.53;5.70;;;;;;;-0.70;100.00;99885.53;4991234;28;20037;-69
2023/11/28 05:53:19;;;;;;;10.57;8.63;;;;;;;-0.19;100.00;99959.25;4991167;28;20424;-69
2023/11/28 05:55:48;;;;;;;8.63;5.43;;;;;;;-0.11;100.00;99957.25;4991581;28;20085;-68
2023/11/28 05:58:14;;;;;;;8.63;5.63;;;;;;;-0.08;100.00;99953.28;5021795;28;20027;-68
2023/11/28 06:00:40;;;;;;;18.10;10.33;;;;;;;0.02;100.00;99954.81;4991519;28;20038;-69
2023/11/28 06:03:06;;;;;;;8.93;5.10;;;;;;;-0.01;100.00;99969.84;4989237;28;20049;-73
2023/11/28 06:05:31;;;;;;;18.07;5.00;;;;;;;-0.12;100.00;99975.81;4989232;28;20037;-70
2023/11/28 06:07:57;;;;;;;12.70;4.50;;;;;;;-0.22;100.00;99938.75;4989914;28;20513;-73
2023/11/28 06:10:42;;;;;;;11.57;5.93;;;;;;;0.17;100.00;99964.31;5027209;28;20128;-72
2023/11/28 06:13:08;;;;;;;9.20;4.87;;;;;;;-0.05;100.00;99912.03;5027894;28;20554;-69
2023/11/28 06:15:33;;;;;;;8.97;5.10;;;;;;;-0.33;100.00;99851.75;5030430;28;20581;-68
2023/11/28 06:17:59;;;;;;;26.63;11.57;;;;;;;0.28;100.00;99943.09;5030637;28;20029;-69
2023/11/28 06:20:25;;;;;;;19.08;10.07;;;;;;;0.32;100.00;99938.34;5031665;28;20519;-73
2023/11/28 06:22:50;;;;;;;31.35;18.20;;;;;;;0.35;100.00;99922.44;5026428;28;20112;-68
2023/11/28 06:25:16;;;;;;;27.17;18.80;;;;;;;0.34;100.00;99913.03;5023092;28;20488;-69
2023/11/28 06:27:42;;;;;;;25.87;16.80;;;;;;;0.31;100.00;99913.72;5030780;28;20180;-70
2023/11/28 06:30:08;;;;;;;25.95;14.48;;;;;;;0.39;100.00;99921.84;5027599;28;20025;-70
2023/11/28 06:32:33;;;;;;;18.17;10.10;;;;;;;0.36;100.00;99924.16;5028659;28;20065;-70
2023/11/28 06:34:59;;;;;;;14.18;8.95;;;;;;;0.41;100.00;99930.47;5012444;28;20076;-68
2023/11/28 06:37:25;;;;;;;12.00;5.95;;;;;;;0.29;100.00;99900.03;5024785;28;20038;-74
2023/11/28 06:39:51;;;;;;;11.77;5.93;;;;;;;0.36;100.00;99915.69;5012673;28;20038;-69
2023/11/28 06:42:18;;;;;;;18.17;8.33;;;;;;;0.31;100.00;99908.63;5014429;28;20034;-75
2023/11/28 06:44:43;;;;;;;22.48;11.73;;;;;;;0.30;100.00;99883.16;5022972;28;20164;-69
2023/11/28 06:47:09;;;;;;;14.13;9.38;;;;;;;0.40;100.00;99905.84;5027026;28;20101;-67
2023/11/28 06:49:34;;;;;;;13.73;6.72;;;;;;;0.47;100.00;99913.09;4992331;28;20408;-69
2023/11/28 06:52:02;;;;;;;11.93;5.65;;;;;;;0.52;100.00;99902.38;4986747;28;20039;-68
2023/11/28 06:54:30;;;;;;;16.27;5.43;;;;;;;0.40;100.00;99872.84;4974743;28;20038;-66
2023/11/28 06:56:55;;;;;;;19.33;5.60;;;;;;;0.50;100.00;99888.69;4973150;28;20039;-70
2023/11/28 06:59:21;;;;;;;13.95;5.03;;;;;;;0.29;100.00;99843.28;4973918;28;20398;-67
2023/11/28 07:01:48;;;;;;;9.90;4.90;;;;;;;0.52;100.00;99867.69;4974266;28;20493;-68
2023/11/28 07:04:14;;;;;;;15.87;4.73;;;;;;;0.60;100.00;99873.31;4976577;28;20123;-67
2023/11/28 07:06:40;;;;;;;10.98;4.63;;;;;;;0.26;100.00;99818.59;4975859;28;20446;-67
2023/11/28 07:09:05;;;;;;;7.15;4.30;;;;;;;0.75;100.00;99881.06;4978718;28;20030;-74
2023/11/28 07:11:31;;;;;;;8.93;4.75;;;;;;;0.86;100.00;99869.03;4991705;28;20053;-71
2023/11/28 07:13:56;;;;;;;16.85;5.47;;;;;;;0.99;100.00;99873.28;4990919;28;20133;-73
2023/11/28 07:16:22;;;;;;;7.93;4.40;;;;;;;1.10;100.00;99855.41;5008330;28;20505;-73
2023/11/28 07:18:48;;;;;;;8.63;5.10;;;;;;;0.84;100.00;99774.06;4992471;28;20030;-68
2023/11/28 07:21:14;;;;;;;6.70;4.18;;;;;;;0.99;100.00;99775.03;4993431;28;20760;-69
2023/11/28 07:23:40;;;;;;;8.27;3.92;;;;;;;1.42;100.00;99817.53;4992278;28;20554;-69
2023/11/28 07:26:06;;;;;;;8.43;3.67;;;;;;;1.78;100.00;99859.69;4993188;28;20054;-68
2023/11/28 07:28:33;;;;;;;6.85;4.07;;;;;;;1.87;100.00;99831.38;4992922;28;20417;-71
2023/11/28 07:30:59;;;;;;;14.20;6.13;;;;;;;1.92;100.00;99811.28;4993129;28;20072;-73
2023/11/28 07:33:25;;;;;;;8.55;4.20;;;;;;;2.01;100.00;99810.97;4993187;28;20034;-68
2023/11/28 07:35:51;;;;;;;7.65;4.07;;;;;;;2.23;100.00;99826.75;4992807;28;20424;-69
2023/11/28 07:38:20;;;;;;;15.00;4.57;;;;;;;2.13;100.00;99788.78;4993565;28;20465;-67
2023/11/28 07:40:46;;;;;;;10.45;4.32;;;;;;;2.31;100.00;99806.81;4993416;28;20056;-68
2023/11/28 07:43:11;;;;;;;7.88;4.03;;;;;;;2.46;100.00;99816.16;4993707;28;20041;-69
2023/11/28 07:45:37;;;;;;;11.98;5.05;;;;;;;2.62;100.00;99816.25;4991069;28;20567;-68
2023/11/28 07:48:05;;;;;;;9.82;5.13;;;;;;;2.73;100.00;99811.81;4993335;28;20045;-67
2023/11/28 07:50:30;;;;;;;9.50;4.72;;;;;;;2.77;100.00;99795.88;4993338;28;20577;-67
2023/11/28 07:53:08;;;;;;;10.32;4.70;;;;;;;2.80;100.00;99803.69;4993495;28;20113;-69
2023/11/28 07:55:34;;;;;;;5.80;3.70;;;;;;;2.86;100.00;99791.28;5005609;28;20042;-69
2023/11/28 07:58:00;;;;;;;16.67;5.30;;;;;;;2.73;100.00;99756.59;4993198;28;20038;-66
2023/11/28 08:00:26;;;;;;;6.57;4.68;;;;;;;2.98;100.00;99786.03;4993380;28;20022;-67
2023/11/28 08:02:51;;;;;;;8.35;5.30;;;;;;;2.90;100.00;99770.31;4993133;28;20027;-68
2023/11/28 08:05:17;;;;;;;7.18;4.25;;;;;;;2.96;100.00;99772.28;4992784;28;20092;-68
2023/11/28 08:07:43;;;;;;;8.90;4.72;;;;;;;3.00;100.00;99779.31;4993171;28;20034;-68
2023/11/28 08:10:11;;;;;;;7.15;4.13;;;;;;;3.08;100.00;99784.88;4993154;28;20097;-71
2023/11/28 08:12:40;;;;;;;7.22;3.78;;;;;;;3.05;100.00;99780.47;4992839;28;20458;-68
2023/11/28 08:15:07;;;;;;;9.60;4.60;;;;;;;3.08;100.00;99775.53;4992650;28;20037;-70
2023/11/28 08:17:33;;;;;;;6.90;4.15;;;;;;;3.02;100.00;99765.00;4992815;28;20026;-68
2023/11/28 08:19:59;;;;;;;14.30;8.38;;;;;;;3.11;100.00;99769.72;4992781;28;20385;-67
2023/11/28 08:22:25;;;;;;;20.70;13.10;;;;;;;3.20;100.00;99766.78;4992790;28;20019;-68
2023/11/28 08:24:51;;;;;;;22.75;13.63;;;;;;;3.26;100.00;99769.69;4992412;28;20454;-68
2023/11/28 08:27:18;;;;;;;27.13;15.50;;;;;;;3.32;100.00;99787.88;4993143;28;20057;-72
2023/11/28 08:29:43;;;;;;;9.60;4.45;;;;;;;2.83;100.00;99675.53;4992695;28;20046;-68
2023/11/28 08:32:09;;;;;;;9.25;5.80;;;;;;;3.37;100.00;99763.50;4992417;28;20632;-68
2023/11/28 08:34:35;;;;;;;6.15;4.07;;;;;;;3.41;100.00;99764.53;4992499;28;20036;-68
2023/11/28 08:37:01;;;;;;;6.93;3.90;;;;;;;2.97;100.00;99674.63;5006650;28;20045;-67
2023/11/28 08:39:27;;;;;;;9.35;4.53;;;;;;;3.03;100.00;99677.50;4992486;28;20029;-70
2023/11/28 08:41:54;;;;;;;12.00;4.35;;;;;;;3.49;100.00;99740.31;4992230;28;20018;-68
2023/11/28 08:44:20;;;;;;;11.00;4.45;;;;;;;3.50;100.00;99741.19;4992148;28;20455;-72
2023/11/28 08:46:48;;;;;;;6.75;4.05;;;;;;;3.01;100.00;99643.38;4992466;28;20022;-68
2023/11/28 08:49:14;;;;;;;12.45;5.75;;;;;;;3.50;100.00;99705.47;4992299;28;20026;-68
2023/11/28 08:51:41;;;;;;;9.63;4.63;;;;;;;3.48;100.00;99690.06;4992401;28;20453;-69
2023/11/28 08:54:06;;;;;;;8.77;5.28;;;;;;;3.52;100.00;99678.38;4992239;28;20026;-69
2023/11/28 08:56:32;;;;;;;10.68;5.28;;;;;;;3.61;100.00;99676.28;4989760;28;20117;-69
2023/11/28 08:58:57;;;;;;;14.93;5.22;;;;;;;3.72;100.00;99672.59;4992172;28;20370;-68
2023/11/28 09:01:23;;;;;;;13.75;4.38;;;;;;;3.77;100.00;99672.84;4991833;28;20057;-69
2023/11/28 09:03:50;;;;;;;11.93;6.28;;;;;;;3.77;100.00;99666.88;4992079;28;20030;-71
2023/11/28 09:06:17;;;;;;;10.25;5.70;;;;;;;3.67;100.00;99650.19;4992053;28;20026;-68
2023/11/28 09:08:43;;;;;;;12.32;4.93;;;;;;;3.81;100.00;99667.09;4992047;28;20031;-68
2023/11/28 09:11:08;;;;;;;7.20;3.67;;;;;;;3.89;100.00;99662.38;4992026;28;20042;-69
2023/11/28 09:13:34;;;;;;;20.63;5.72;;;;;;;3.46;100.00;99561.53;4991866;28;20520;-68
2023/11/28 09:16:02;;;;;;;12.80;5.75;;;;;;;3.43;100.00;99546.06;4991613;28;20018;-69
2023/11/28 09:18:28;;;;;;;8.20;3.70;;;;;;;3.85;100.00;99619.59;4992000;28;20028;-68
2023/11/28 09:20:53;;;;;;;11.25;5.18;;;;;;;3.76;100.00;99601.28;4991321;28;20026;-70
2023/11/28 09:23:19;;;;;;;11.60;4.75;;;;;;;3.85;100.00;99617.94;4989109;28;20042;-68
2023/11/28 09:25:44;;;;;;;6.82;3.53;;;;;;;3.92;100.00;99615.69;4991744;28;20393;-68
2023/11/28 09:28:10;;;;;;;6.53;3.75;;;;;;;3.96;100.00;99598.06;4991559;28;20038;-68
2023/11/28 09:30:35;;;;;;;23.75;15.23;;;;;;;3.97;100.00;99588.72;4991714;28;20470;-69
2023/11/28 09:33:01;;;;;;;38.78;19.08;;;;;;;4.00;100.00;99586.28;4991681;28;20046;-66
2023/11/28 09:35:27;;;;;;;16.33;7.40;;;;;;;4.00;100.00;99574.41;4991496;28;20648;-67
2023/11/28 09:37:52;;;;;;;11.57;7.93;;;;;;;4.01;100.00;99560.84;4990070;28;20097;-68
2023/11/28 09:40:18;;;;;;;16.88;8.20;;;;;;;4.05;100.00;99546.56;4991571;28;20105;-68
2023/11/28 09:42:50;;;;;;;14.40;9.77;;;;;;;4.07;100.00;99534.72;4991447;28;20070;-68
2023/11/28 09:45:18;;;;;;;27.27;16.65;;;;;;;4.17;100.00;99536.88;4991591;28;20030;-69
2023/11/28 09:47:45;;;;;;;15.18;9.07;;;;;;;3.99;100.00;99496.03;4991129;28;20030;-68
2023/11/28 09:50:12;;;;;;;9.68;6.53;;;;;;;4.19;100.00;99519.09;4991669;28;20042;-68
2023/11/28 09:52:45;;;;;;;15.98;6.15;;;;;;;4.12;100.00;99492.38;4991568;28;20105;-68
2023/11/28 09:55:14;;;;;;;10.65;5.22;;;;;;;4.16;100.00;99496.84;5004965;28;20072;-67
2023/11/28 09:57:45;;;;;;;15.47;7.00;;;;;;;4.09;100.00;99481.13;4991076;28;20473;-68
2023/11/28 10:00:19;;;;;;;12.80;7.18;;;;;;;3.85;100.00;99421.34;4988316;28;20042;-66
2023/11/28 10:02:50;;;;;;;8.10;4.88;;;;;;;4.12;100.00;99458.31;4988457;28;20042;-70
2023/11/28 10:05:18;;;;;;;5.60;3.28;;;;;;;4.13;100.00;99460.06;4988525;28;20414;-68
2023/11/28 10:07:51;;;;;;;8.13;4.22;;;;;;;4.12;100.00;99442.97;4988445;28;20038;-70
2023/11/28 10:10:23;;;;;;;14.80;8.68;;;;;;;4.19;100.00;99435.66;4988536;28;20513;-68
2023/11/28 10:12:53;;;;;;;13.77;7.55;;;;;;;4.21;100.00;99441.72;4988702;28;20051;-67
2023/11/28 10:15:20;;;;;;;18.52;12.18;;;;;;;4.22;100.00;99437.47;4988380;28;20038;-66
2023/11/28 10:17:46;;;;;;;11.80;6.80;;;;;;;4.30;100.00;99425.94;4988374;28;20062;-72
2023/11/28 10:20:12;;;;;;;16.77;9.32;;;;;;;4.12;100.00;99408.09;4988538;28;20120;-68
2023/11/28 10:22:38;;;;;;;15.15;7.53;;;;;;;4.27;100.00;99415.56;4988572;28;20098;-68
2023/11/28 10:25:10;;;;;;;8.73;5.03;;;;;;;4.34;100.00;99415.03;4988475;28;20038;-69
2023/11/28 10:27:43;;;;;;;6.47;4.00;;;;;;;3.99;100.00;99327.50;4988274;28;20485;-68
2023/11/28 10:30:15;;;;;;;7.38;4.57;;;;;;;4.46;100.00;99383.16;4988340;28;20030;-66
2023/11/28 10:32:41;;;;;;;10.55;5.97;;;;;;;4.51;100.00;99384.25;4988436;28;20054;-68
2023/11/28 10:35:07;;;;;;;8.88;4.45;;;;;;;4.52;100.00;99373.22;4988588;28;20496;-71
2023/11/28 10:37:37;;;;;;;18.20;6.90;;;;;;;4.43;100.00;99343.03;4995044;28;20070;-68
2023/11/28 10:40:07;;;;;;;7.93;4.82;;;;;;;4.56;100.00;99354.66;4990769;28;20495;-68
2023/11/28 10:42:33;;;;;;;10.68;3.97;;;;;;;4.59;100.00;99334.34;4991144;28;20031;-66
2023/11/28 10:45:00;;;;;;;10.57;4.53;;;;;;;4.78;100.00;99340.22;4990852;28;20029;-68
2023/11/28 10:47:29;;;;;;;10.27;5.38;;;;;;;4.82;100.00;99319.06;4990798;28;20109;-68
2023/11/28 10:49:55;;;;;;;12.43;4.43;;;;;;;4.91;100.00;99316.03;4990982;28;20041;-68
2023/11/28 10:52:26;;;;;;;12.60;5.00;;;;;;;4.84;100.00;99285.09;4991189;28;20503;-68
2023/11/28 10:54:55;;;;;;;14.27;4.72;;;;;;;5.03;100.00;99293.50;4991054;28;20129;-70
2023/11/28 10:57:27;;;;;;;21.15;6.40;;;;;;;5.07;100.00;99284.28;4990653;28;20485;-68
2023/11/28 10:59:57;;;;;;;18.00;5.78;;;;;;;5.10;100.00;99285.28;4993313;28;20046;-72
2023/11/28 11:02:23;;;;;;;15.40;5.70;;;;;;;5.13;100.00;99258.94;4994643;28;20030;-69
2023/11/28 11:04:48;;;;;;;10.52;6.85;;;;;;;5.23;100.00;99255.91;4994452;28;20425;-68
2023/11/28 11:07:14;;;;;;;10.98;6.50;;;;;;;5.31;100.00;99249.41;4994027;28;20037;-67
2023/11/28 11:09:40;;;;;;;12.45;5.75;;;;;;;5.48;100.00;99236.38;4994366;28;20044;-68
2023/11/28 11:12:07;;;;;;;10.57;5.53;;;;;;;5.60;100.00;99241.94;4993014;28;20496;-66
2023/11/28 11:14:57;;;;;;;10.13;6.30;;;;;;;5.16;100.00;99132.00;4994068;28;20034;-68
2023/11/28 11:17:28;;;;;;;;;;;;;;;5.93;100.00;99230.31;4994439;28;20038;-68